Aurora, West Virginia
Current Conditions -  °F | °C
As of 2:25 PM on Monday 20 Oct 2014 (Local Time) from K2G4 Reporting Station
Overcast Overcast  
Wind Chill: 42°   Ceiling: 9500
Heat Index: 46°   Visibility: 10mi
Dew Point: 34°   Wind: 8mph
Humidity: 62%   Direction: 210°SSW
Pressure: 29.95"   Gusts: NA
Location:  39.32°N, 79.55°W
Report Text: K2G4 201825Z AUTO 21007KT 10SM OVC095 08/01 A2995 RMK AO1
Loading
Personal Weather Stations






























Interactive Weather Map
Tropical Storm Tracking
New forecast layout! Learn more

10-Day Weather Forecast

Advertisements
Track Severe Weather on mobile